Sahiwal, Pakistan
Current Conditions -  °F | °C
As of 3:30 PM on Monday 22 Dec 2014 (Local Time) from OPLA Reporting Station
Haze Haze  
Wind Chill: 50°   Ceiling: Unl
Heat Index: 50°   Visibility: 0.75mi
Dew Point: 45°   Wind: 6mph
Humidity: 82%   Direction: 90°E
Pressure: 29.97"   Gusts: NA
Location:  30.67°N, 73.11°E
Report Text: OPLA 221030Z 09005KT 1200 BR SCT100 SCT200 10/07 Q1015
Loading
Personal Weather Stations






























Interactive Weather Map New forecast layout! Learn more

10-Day Weather Forecast

Advertisements
Track Severe Weather on mobile